Time;durP1;ratioP1;P1;durP2;ratioP2;P2;SDS_P1;SDS_P2;PMS_P1;PMS_P2;Temp;Humidity;BMP_temperature;BMP_pressure;BME280_temperature;BME280_humidity;BME280_pressure;Samples;Min_cycle;Max_cycle;Signal;HPM_P1;HPM_P2
2022/02/17 00:02:07;;;;;;;;;0.00;0.00;;;;;;;;5056544;28;45420;-71
2022/02/17 00:04:32;;;;;;;;;0.00;0.00;;;;;;;;5057460;28;46296;-72
2022/02/17 00:06:57;;;;;;;;;0.00;0.00;;;;;;;;5056775;28;45277;-72
2022/02/17 00:09:22;;;;;;;;;0.75;0.00;;;;;;;;5057012;28;45288;-72
2022/02/17 00:11:48;;;;;;;;;0.00;0.00;;;;;;;;5056598;28;45405;-72
2022/02/17 00:14:13;;;;;;;;;0.00;0.00;;;;;;;;5056702;28;47256;-72
2022/02/17 00:16:38;;;;;;;;;0.00;0.00;;;;;;;;5056708;28;45490;-72
2022/02/17 00:19:03;;;;;;;;;0.00;0.00;;;;;;;;5057258;28;45459;-73
2022/02/17 00:21:29;;;;;;;;;0.00;0.00;;;;;;;;5055800;28;45506;-73
2022/02/17 00:23:54;;;;;;;;;0.00;0.00;;;;;;;;5055391;28;47116;-74
2022/02/17 00:26:19;;;;;;;;;0.00;0.00;;;;;;;;5057174;28;45594;-73
2022/02/17 00:28:45;;;;;;;;;0.00;0.00;;;;;;;;5057340;28;45351;-74
2022/02/17 00:31:10;;;;;;;;;0.00;0.00;;;;;;;;5056991;28;45468;-73
2022/02/17 00:33:38;;;;;;;;;0.00;0.00;;;;;;;;5056945;28;45367;-72
2022/02/17 00:36:05;;;;;;;;;1.00;0.00;;;;;;;;5056947;28;45427;-74
2022/02/17 00:38:30;;;;;;;;;0.00;0.00;;;;;;;;5056683;28;45520;-73
2022/02/17 00:40:55;;;;;;;;;0.00;0.00;;;;;;;;5056658;28;48054;-73
2022/02/17 00:43:21;;;;;;;;;0.00;0.00;;;;;;;;5057395;28;45436;-73
2022/02/17 00:45:46;;;;;;;;;2.00;0.00;;;;;;;;5056850;28;45362;-73
2022/02/17 00:48:11;;;;;;;;;0.00;0.00;;;;;;;;5037393;28;45495;-74
2022/02/17 00:50:36;;;;;;;;;0.00;0.00;;;;;;;;5057221;28;45539;-73
2022/02/17 00:53:01;;;;;;;;;0.00;0.00;;;;;;;;5058033;28;46246;-72
2022/02/17 00:55:27;;;;;;;;;0.00;0.00;;;;;;;;5057483;28;45424;-72
2022/02/17 00:57:52;;;;;;;;;1.00;0.00;;;;;;;;5058203;27;45540;-72
2022/02/17 01:00:17;;;;;;;;;0.00;0.00;;;;;;;;5057452;28;45260;-72
2022/02/17 01:02:42;;;;;;;;;0.00;0.00;;;;;;;;5057689;28;45928;-73
2022/02/17 01:05:08;;;;;;;;;0.00;0.00;;;;;;;;5056522;28;45667;-72
2022/02/17 01:07:33;;;;;;;;;0.00;0.00;;;;;;;;5057777;28;45472;-73
2022/02/17 01:09:58;;;;;;;;;0.00;0.00;;;;;;;;5057826;28;45492;-72
2022/02/17 01:12:23;;;;;;;;;1.00;0.00;;;;;;;;5056885;28;46343;-72
2022/02/17 01:14:48;;;;;;;;;1.00;0.00;;;;;;;;5057499;28;45671;-72
2022/02/17 01:17:14;;;;;;;;;0.00;0.00;;;;;;;;5057133;28;45571;-72
2022/02/17 01:19:39;;;;;;;;;0.00;0.00;;;;;;;;5057122;28;45326;-72
2022/02/17 01:22:04;;;;;;;;;0.00;0.00;;;;;;;;5057806;28;45389;-72
2022/02/17 01:24:29;;;;;;;;;0.75;0.00;;;;;;;;5057667;28;45405;-72
2022/02/17 01:26:54;;;;;;;;;0.00;0.00;;;;;;;;5057910;28;45254;-71
2022/02/17 01:29:20;;;;;;;;;0.00;0.00;;;;;;;;5057529;28;45336;-72
2022/02/17 01:31:45;;;;;;;;;0.75;0.00;;;;;;;;5056785;28;45594;-72
2022/02/17 01:34:10;;;;;;;;;0.00;0.00;;;;;;;;5056994;28;45314;-72
2022/02/17 01:36:35;;;;;;;;;0.00;0.00;;;;;;;;5057638;28;45438;-73
2022/02/17 01:39:01;;;;;;;;;1.00;1.00;;;;;;;;5055571;28;45624;-72
2022/02/17 01:41:26;;;;;;;;;0.00;0.00;;;;;;;;5057629;28;46423;-72
2022/02/17 01:43:52;;;;;;;;;2.00;1.00;;;;;;;;5057892;28;45590;-74
2022/02/17 01:46:30;;;;;;;;;0.00;0.00;;;;;;;;5057343;28;45378;-72
2022/02/17 01:48:55;;;;;;;;;0.00;0.00;;;;;;;;5057863;28;45563;-72
2022/02/17 01:51:20;;;;;;;;;0.00;0.00;;;;;;;;5057031;28;46268;-72
2022/02/17 01:53:45;;;;;;;;;1.00;0.00;;;;;;;;5057288;28;45819;-72
2022/02/17 01:56:11;;;;;;;;;1.00;0.75;;;;;;;;5057522;27;45421;-74
2022/02/17 01:58:36;;;;;;;;;1.50;1.00;;;;;;;;5055867;28;45428;-74
2022/02/17 02:01:03;;;;;;;;;1.00;0.00;;;;;;;;5056608;28;46319;-72
2022/02/17 02:03:28;;;;;;;;;0.75;0.75;;;;;;;;5056338;28;45431;-73
2022/02/17 02:05:53;;;;;;;;;1.00;1.00;;;;;;;;5057219;28;45253;-74
2022/02/17 02:08:19;;;;;;;;;4.25;0.75;;;;;;;;5057223;28;45558;-73
2022/02/17 02:10:45;;;;;;;;;2.75;1.00;;;;;;;;5056331;28;47077;-71
2022/02/17 02:13:10;;;;;;;;;3.00;2.25;;;;;;;;5056175;28;45446;-73
2022/02/17 02:15:47;;;;;;;;;3.75;1.00;;;;;;;;5057042;28;45312;-73
2022/02/17 02:18:13;;;;;;;;;2.00;1.00;;;;;;;;5057130;28;45396;-73
2022/02/17 02:20:42;;;;;;;;;4.00;1.25;;;;;;;;5056807;28;47068;-73
2022/02/17 02:23:07;;;;;;;;;3.00;1.00;;;;;;;;5056383;28;45558;-73
2022/02/17 02:25:32;;;;;;;;;2.25;1.25;;;;;;;;5056517;28;45333;-73
2022/02/17 02:27:57;;;;;;;;;2.00;1.00;;;;;;;;5056349;28;45529;-73
2022/02/17 02:30:23;;;;;;;;;2.00;1.00;;;;;;;;5056554;28;47196;-73
2022/02/17 02:32:48;;;;;;;;;2.00;1.00;;;;;;;;5056572;28;45596;-73
2022/02/17 02:35:13;;;;;;;;;3.25;1.75;;;;;;;;5056699;28;45462;-74
2022/02/17 02:37:38;;;;;;;;;2.00;0.75;;;;;;;;5056112;28;45385;-73
2022/02/17 02:40:04;;;;;;;;;3.75;2.50;;;;;;;;5054678;28;46252;-73
2022/02/17 02:42:29;;;;;;;;;1.00;1.00;;;;;;;;5057170;28;45475;-73
2022/02/17 02:44:54;;;;;;;;;2.75;0.75;;;;;;;;5058289;28;45500;-73
2022/02/17 02:47:20;;;;;;;;;1.25;1.25;;;;;;;;5056868;28;45358;-73
2022/02/17 02:49:45;;;;;;;;;3.00;2.00;;;;;;;;5056118;28;45349;-73
2022/02/17 02:52:10;;;;;;;;;2.00;2.00;;;;;;;;5038176;28;45424;-73
2022/02/17 02:54:35;;;;;;;;;5.00;0.00;;;;;;;;5056519;28;45416;-73
2022/02/17 02:57:00;;;;;;;;;3.25;1.00;;;;;;;;5055911;28;45311;-73
2022/02/17 02:59:26;;;;;;;;;1.00;1.00;;;;;;;;5057775;27;46102;-73
2022/02/17 03:01:51;;;;;;;;;3.00;2.00;;;;;;;;5056317;28;45347;-73
2022/02/17 03:04:16;;;;;;;;;4.25;2.75;;;;;;;;5055435;28;45333;-73
2022/02/17 03:06:41;;;;;;;;;7.00;4.75;;;;;;;;5056064;28;45539;-73
2022/02/17 03:09:06;;;;;;;;;4.00;2.00;;;;;;;;5056019;28;46025;-73
2022/02/17 03:11:32;;;;;;;;;2.25;1.00;;;;;;;;5056000;28;45428;-73
2022/02/17 03:13:58;;;;;;;;;3.00;1.25;;;;;;;;5056301;28;45392;-73
2022/02/17 03:16:23;;;;;;;;;5.25;2.00;;;;;;;;5056669;28;45230;-73
2022/02/17 03:18:49;;;;;;;;;2.00;1.50;;;;;;;;5055828;28;45446;-73
2022/02/17 03:21:14;;;;;;;;;6.25;3.00;;;;;;;;5055437;27;45440;-74
2022/02/17 03:23:40;;;;;;;;;4.25;2.75;;;;;;;;5055779;28;45416;-73
2022/02/17 03:26:05;;;;;;;;;6.00;2.25;;;;;;;;5055761;28;45446;-73
2022/02/17 03:28:30;;;;;;;;;0.75;0.75;;;;;;;;5055161;28;47413;-73
2022/02/17 03:30:56;;;;;;;;;5.00;2.00;;;;;;;;5056036;28;45423;-73
2022/02/17 03:33:21;;;;;;;;;4.50;3.00;;;;;;;;5055780;28;45363;-73
2022/02/17 03:35:47;;;;;;;;;4.75;2.75;;;;;;;;5041260;28;45497;-73
2022/02/17 03:38:12;;;;;;;;;6.25;3.25;;;;;;;;5059985;28;46172;-73
2022/02/17 03:40:37;;;;;;;;;1.50;1.00;;;;;;;;5058666;28;45524;-73
2022/02/17 03:43:03;;;;;;;;;5.50;2.75;;;;;;;;5058004;28;45522;-73
2022/02/17 03:45:28;;;;;;;;;4.00;3.25;;;;;;;;5059139;28;45410;-73
2022/02/17 03:47:53;;;;;;;;;4.25;4.00;;;;;;;;5040692;28;46146;-73
2022/02/17 03:50:18;;;;;;;;;4.25;3.25;;;;;;;;5059011;28;45461;-73
2022/02/17 03:52:44;;;;;;;;;5.00;1.50;;;;;;;;5058487;28;45279;-73
2022/02/17 03:55:10;;;;;;;;;5.75;4.00;;;;;;;;5058321;28;45371;-73
2022/02/17 03:57:35;;;;;;;;;5.00;3.00;;;;;;;;5058783;28;46859;-73
2022/02/17 04:00:01;;;;;;;;;9.50;3.50;;;;;;;;5058737;28;45542;-73
2022/02/17 04:02:26;;;;;;;;;10.25;4.00;;;;;;;;5060423;27;45540;-73
2022/02/17 04:04:51;;;;;;;;;7.00;5.50;;;;;;;;5059056;28;45316;-73
2022/02/17 04:07:16;;;;;;;;;8.50;5.00;;;;;;;;5057904;28;47165;-73
2022/02/17 04:09:42;;;;;;;;;8.25;4.00;;;;;;;;5058664;28;45376;-73
2022/02/17 04:12:07;;;;;;;;;11.50;7.25;;;;;;;;5058853;28;45473;-73
2022/02/17 04:14:33;;;;;;;;;6.00;3.00;;;;;;;;5059090;27;45310;-73
2022/02/17 04:16:58;;;;;;;;;1.75;1.00;;;;;;;;5040834;28;47635;-74
2022/02/17 04:19:25;;;;;;;;;13.25;6.75;;;;;;;;5057796;28;45413;-73
2022/02/17 04:21:50;;;;;;;;;7.00;5.75;;;;;;;;5058470;28;45518;-73
2022/02/17 04:24:15;;;;;;;;;7.00;4.00;;;;;;;;5060347;28;45327;-73
2022/02/17 04:26:40;;;;;;;;;5.25;3.00;;;;;;;;5058492;28;45524;-73
2022/02/17 04:29:05;;;;;;;;;3.00;3.00;;;;;;;;5058620;28;45489;-73
2022/02/17 04:31:31;;;;;;;;;8.25;4.00;;;;;;;;5056103;28;45439;-73
2022/02/17 04:33:56;;;;;;;;;1.75;1.50;;;;;;;;5058413;28;45530;-72
2022/02/17 04:36:21;;;;;;;;;8.00;5.00;;;;;;;;5058033;28;46098;-72
2022/02/17 04:38:46;;;;;;;;;8.00;5.50;;;;;;;;5057642;28;46445;-73
2022/02/17 04:43:56;;;;;;;;;5.25;4.75;;;;;;;;5058263;28;45348;-72
2022/02/17 04:46:23;;;;;;;;;5.25;5.00;;;;;;;;5057081;28;47065;-74
2022/02/17 04:48:48;;;;;;;;;4.75;4.50;;;;;;;;5058135;28;45402;-74
2022/02/17 04:51:14;;;;;;;;;11.00;6.00;;;;;;;;5056342;28;45340;-74
2022/02/17 04:53:39;;;;;;;;;9.25;6.75;;;;;;;;5057710;28;45491;-74
2022/02/17 04:56:04;;;;;;;;;6.75;3.50;;;;;;;;5058298;28;46010;-75
2022/02/17 04:58:29;;;;;;;;;8.25;8.25;;;;;;;;5057246;28;45324;-74
2022/02/17 05:00:55;;;;;;;;;11.50;7.25;;;;;;;;5056167;28;45396;-74
2022/02/17 05:03:24;;;;;;;;;7.75;6.75;;;;;;;;5057805;28;45442;-74
2022/02/17 05:05:52;;;;;;;;;10.25;7.75;;;;;;;;5057747;28;47108;-72
2022/02/17 05:08:18;;;;;;;;;5.75;4.25;;;;;;;;5056918;28;45550;-74
2022/02/17 05:10:44;;;;;;;;;9.00;6.75;;;;;;;;5055327;28;45463;-75
2022/02/17 05:13:09;;;;;;;;;9.50;4.50;;;;;;;;5057132;28;45510;-74
2022/02/17 05:15:36;;;;;;;;;9.50;6.75;;;;;;;;5038948;28;46027;-72
2022/02/17 05:18:02;;;;;;;;;10.00;7.75;;;;;;;;5057086;28;45316;-73
2022/02/17 05:20:27;;;;;;;;;10.25;6.25;;;;;;;;5059894;28;45344;-73
2022/02/17 05:22:52;;;;;;;;;13.00;5.50;;;;;;;;5057107;28;45465;-74
2022/02/17 05:25:17;;;;;;;;;8.00;5.50;;;;;;;;5056425;28;46312;-75
2022/02/17 05:27:43;;;;;;;;;8.50;4.00;;;;;;;;5056742;28;45644;-75
2022/02/17 05:30:08;;;;;;;;;8.50;5.00;;;;;;;;5058648;28;45301;-74
2022/02/17 05:32:41;;;;;;;;;9.25;8.75;;;;;;;;5057941;28;45490;-74
2022/02/17 05:35:06;;;;;;;;;10.00;5.75;;;;;;;;5041660;28;46312;-73
2022/02/17 05:37:32;;;;;;;;;14.50;6.00;;;;;;;;5056543;28;45332;-74
2022/02/17 05:39:57;;;;;;;;;7.50;6.00;;;;;;;;5039057;28;45443;-74
2022/02/17 05:42:22;;;;;;;;;7.00;5.25;;;;;;;;5057355;28;45453;-74
2022/02/17 05:44:47;;;;;;;;;12.75;6.00;;;;;;;;5057146;27;45452;-74
2022/02/17 05:47:13;;;;;;;;;8.00;6.00;;;;;;;;5056603;28;45254;-74
2022/02/17 05:49:38;;;;;;;;;12.50;7.75;;;;;;;;5021716;28;45445;-74
2022/02/17 05:52:03;;;;;;;;;6.00;3.50;;;;;;;;5056492;27;45237;-74
2022/02/17 05:54:29;;;;;;;;;14.75;9.00;;;;;;;;5056695;28;47002;-73
2022/02/17 05:56:54;;;;;;;;;8.50;6.50;;;;;;;;5055700;28;45405;-72
2022/02/17 05:59:19;;;;;;;;;4.25;4.00;;;;;;;;5038555;28;45395;-74
2022/02/17 06:01:45;;;;;;;;;11.25;7.75;;;;;;;;5056115;27;45281;-72
2022/02/17 06:04:10;;;;;;;;;12.75;10.00;;;;;;;;5055733;28;46932;-72
2022/02/17 06:06:36;;;;;;;;;9.25;7.00;;;;;;;;5055785;28;45472;-74
2022/02/17 06:09:02;;;;;;;;;11.00;5.50;;;;;;;;5056561;28;45533;-71
2022/02/17 06:11:27;;;;;;;;;13.00;6.75;;;;;;;;5038017;28;45504;-75
2022/02/17 06:13:53;;;;;;;;;14.75;7.50;;;;;;;;5055989;28;47039;-74
2022/02/17 06:16:18;;;;;;;;;6.00;4.75;;;;;;;;5055393;28;45410;-74
2022/02/17 06:18:43;;;;;;;;;11.50;6.75;;;;;;;;5056598;28;45407;-74
2022/02/17 06:21:08;;;;;;;;;3.75;2.50;;;;;;;;5055917;28;45483;-74
2022/02/17 06:23:33;;;;;;;;;4.25;3.50;;;;;;;;5055644;28;47168;-74
2022/02/17 06:25:58;;;;;;;;;12.50;7.50;;;;;;;;5037274;28;45414;-74
2022/02/17 06:28:24;;;;;;;;;12.75;8.00;;;;;;;;5055417;28;45433;-74
2022/02/17 06:30:50;;;;;;;;;14.25;9.75;;;;;;;;5056302;28;45367;-74
2022/02/17 06:33:15;;;;;;;;;10.25;7.00;;;;;;;;5056885;28;45465;-74
2022/02/17 06:35:40;;;;;;;;;13.50;7.25;;;;;;;;5055643;28;45389;-74
2022/02/17 06:38:06;;;;;;;;;8.00;8.00;;;;;;;;5055985;28;45349;-74
2022/02/17 06:40:32;;;;;;;;;8.25;6.25;;;;;;;;5054937;28;45335;-74
2022/02/17 06:43:07;;;;;;;;;9.25;8.50;;;;;;;;5055660;28;45375;-74
2022/02/17 06:45:34;;;;;;;;;16.00;10.75;;;;;;;;5055603;28;45475;-73
2022/02/17 06:47:59;;;;;;;;;14.00;9.75;;;;;;;;5054958;28;45433;-71
2022/02/17 06:50:24;;;;;;;;;12.75;8.50;;;;;;;;5055467;28;45421;-74
2022/02/17 06:52:49;;;;;;;;;10.50;8.00;;;;;;;;5055422;28;45964;-73
2022/02/17 06:55:15;;;;;;;;;10.25;7.50;;;;;;;;5059239;28;45453;-73
2022/02/17 06:57:40;;;;;;;;;16.75;8.50;;;;;;;;5055720;28;45376;-73
2022/02/17 07:00:06;;;;;;;;;14.25;9.75;;;;;;;;5056878;28;45419;-72
2022/02/17 07:02:33;;;;;;;;;12.00;9.00;;;;;;;;5060301;28;47496;-72
2022/02/17 07:04:58;;;;;;;;;16.50;9.50;;;;;;;;5060653;28;45322;-73
2022/02/17 07:07:24;;;;;;;;;12.50;9.50;;;;;;;;5059320;28;45339;-73
2022/02/17 07:09:49;;;;;;;;;18.50;13.00;;;;;;;;5056924;28;45441;-72
2022/02/17 07:12:14;;;;;;;;;11.50;7.25;;;;;;;;5057657;28;47144;-74
2022/02/17 07:14:40;;;;;;;;;12.25;6.50;;;;;;;;5055343;27;45408;-73
2022/02/17 07:17:05;;;;;;;;;13.75;10.00;;;;;;;;5055520;28;45267;-75
2022/02/17 07:19:31;;;;;;;;;14.00;9.75;;;;;;;;5050278;28;45484;-75
2022/02/17 07:21:56;;;;;;;;;10.50;8.00;;;;;;;;5053921;28;46263;-73
2022/02/17 07:24:21;;;;;;;;;13.75;9.00;;;;;;;;5054971;28;45270;-74
2022/02/17 07:26:47;;;;;;;;;16.00;12.75;;;;;;;;5055038;28;45437;-73
2022/02/17 07:29:13;;;;;;;;;13.00;7.75;;;;;;;;5055756;27;45274;-74
2022/02/17 07:31:38;;;;;;;;;13.25;9.75;;;;;;;;5052976;28;46231;-74
2022/02/17 07:34:04;;;;;;;;;12.75;9.75;;;;;;;;5035920;28;45419;-73
2022/02/17 07:36:29;;;;;;;;;20.75;10.25;;;;;;;;5054113;28;45512;-73
2022/02/17 07:38:55;;;;;;;;;13.50;9.25;;;;;;;;5053929;27;45291;-74
2022/02/17 07:41:20;;;;;;;;;11.75;9.50;;;;;;;;5054422;28;45350;-73
2022/02/17 07:43:45;;;;;;;;;18.75;10.00;;;;;;;;5053738;28;45484;-74
2022/02/17 07:46:12;;;;;;;;;12.25;9.75;;;;;;;;5053766;28;45336;-74
2022/02/17 07:48:37;;;;;;;;;12.50;9.25;;;;;;;;5054263;28;45591;-74
2022/02/17 07:51:02;;;;;;;;;9.75;8.75;;;;;;;;5053674;28;46327;-74
2022/02/17 07:53:28;;;;;;;;;13.25;10.25;;;;;;;;5053983;28;45461;-73
2022/02/17 07:55:53;;;;;;;;;12.00;8.75;;;;;;;;5053265;28;45490;-74
2022/02/17 07:58:18;;;;;;;;;17.75;9.25;;;;;;;;5051832;28;45437;-74
2022/02/17 08:00:44;;;;;;;;;4.75;2.00;;;;;;;;5052294;28;46005;-75
2022/02/17 08:03:10;;;;;;;;;13.75;10.50;;;;;;;;5052938;28;45384;-73
2022/02/17 08:05:38;;;;;;;;;12.50;9.50;;;;;;;;5053456;28;45448;-74
2022/02/17 08:08:06;;;;;;;;;17.25;9.00;;;;;;;;5037933;27;45222;-73
2022/02/17 08:10:32;;;;;;;;;13.75;7.00;;;;;;;;5048909;28;46295;-74
2022/02/17 08:12:57;;;;;;;;;16.25;8.00;;;;;;;;5035389;28;45314;-74
2022/02/17 08:15:23;;;;;;;;;14.00;9.25;;;;;;;;5053729;27;45458;-74
2022/02/17 08:17:48;;;;;;;;;7.00;5.50;;;;;;;;5054004;28;45398;-74
2022/02/17 08:20:13;;;;;;;;;14.25;10.00;;;;;;;;5054908;28;45373;-74
2022/02/17 08:22:46;;;;;;;;;13.00;9.50;;;;;;;;5056450;28;45455;-74
2022/02/17 08:25:11;;;;;;;;;11.75;9.00;;;;;;;;5058641;27;45391;-74
2022/02/17 08:27:36;;;;;;;;;14.25;10.25;;;;;;;;5057321;28;45497;-74
2022/02/17 08:30:02;;;;;;;;;15.25;9.25;;;;;;;;5056587;28;45988;-73
2022/02/17 08:32:27;;;;;;;;;16.75;13.25;;;;;;;;5057114;27;45340;-74
2022/02/17 08:34:53;;;;;;;;;10.25;8.75;;;;;;;;5057280;28;45798;-73
2022/02/17 08:37:18;;;;;;;;;12.75;7.50;;;;;;;;5056283;28;45506;-73
2022/02/17 08:39:43;;;;;;;;;11.00;8.00;;;;;;;;5056408;28;46056;-74
2022/02/17 08:42:08;;;;;;;;;15.75;8.25;;;;;;;;5056321;28;45553;-73
2022/02/17 08:44:34;;;;;;;;;15.25;8.75;;;;;;;;5056633;27;45412;-73
2022/02/17 08:46:59;;;;;;;;;17.25;10.50;;;;;;;;5056980;28;45529;-74
2022/02/17 08:49:24;;;;;;;;;12.00;8.00;;;;;;;;5055992;28;46280;-73
2022/02/17 08:51:49;;;;;;;;;15.00;11.00;;;;;;;;5056383;28;45377;-74
2022/02/17 08:54:14;;;;;;;;;13.25;9.00;;;;;;;;5056333;28;45285;-73
2022/02/17 08:56:40;;;;;;;;;14.75;12.00;;;;;;;;5056326;28;45536;-74
2022/02/17 08:59:05;;;;;;;;;9.00;7.00;;;;;;;;5056029;28;46152;-74
2022/02/17 09:01:30;;;;;;;;;12.75;9.00;;;;;;;;5055890;28;45544;-73
2022/02/17 09:03:55;;;;;;;;;15.00;9.25;;;;;;;;5038042;28;45286;-73
2022/02/17 09:06:21;;;;;;;;;19.25;13.00;;;;;;;;5056332;28;45392;-73
2022/02/17 09:08:46;;;;;;;;;16.75;10.25;;;;;;;;5039832;28;47060;-74
2022/02/17 09:11:13;;;;;;;;;19.25;12.25;;;;;;;;5021796;28;45667;-74
2022/02/17 09:13:38;;;;;;;;;12.50;7.50;;;;;;;;5055912;28;45446;-73
2022/02/17 09:16:04;;;;;;;;;14.25;8.50;;;;;;;;5056705;28;45366;-73
2022/02/17 09:18:31;;;;;;;;;9.50;8.00;;;;;;;;5056420;28;47124;-74
2022/02/17 09:20:56;;;;;;;;;7.50;7.00;;;;;;;;5056478;28;45516;-73
2022/02/17 09:23:23;;;;;;;;;7.75;5.25;;;;;;;;5056055;28;45648;-74
2022/02/17 09:25:48;;;;;;;;;10.50;7.75;;;;;;;;5056299;27;45428;-73
2022/02/17 09:28:13;;;;;;;;;19.50;13.50;;;;;;;;5055265;28;45387;-74
2022/02/17 09:30:38;;;;;;;;;15.75;10.00;;;;;;;;5056915;28;45499;-73
2022/02/17 09:33:04;;;;;;;;;13.25;9.00;;;;;;;;5055449;28;45442;-73
2022/02/17 09:35:29;;;;;;;;;12.25;6.00;;;;;;;;5057119;28;45477;-74
2022/02/17 09:37:54;;;;;;;;;10.50;8.25;;;;;;;;5056269;28;45434;-74
2022/02/17 09:40:20;;;;;;;;;11.00;9.75;;;;;;;;5054459;28;45362;-74
2022/02/17 09:42:46;;;;;;;;;8.50;7.50;;;;;;;;5055570;28;45399;-74
2022/02/17 09:45:11;;;;;;;;;14.00;6.00;;;;;;;;5056390;27;45499;-74
2022/02/17 09:47:41;;;;;;;;;14.50;9.25;;;;;;;;5058454;27;46405;-74
2022/02/17 09:50:07;;;;;;;;;18.75;13.50;;;;;;;;5040203;28;47922;-74
2022/02/17 09:52:33;;;;;;;;;12.25;8.25;;;;;;;;5050854;28;45316;-73
2022/02/17 09:54:59;;;;;;;;;8.00;7.75;;;;;;;;5055685;28;45657;-74
2022/02/17 09:57:24;;;;;;;;;7.25;6.75;;;;;;;;5055205;28;46217;-73
2022/02/17 09:59:49;;;;;;;;;11.75;8.75;;;;;;;;5055450;28;45299;-74
2022/02/17 10:02:21;;;;;;;;;10.50;8.00;;;;;;;;5055865;28;45295;-73
2022/02/17 10:04:56;;;;;;;;;14.75;9.00;;;;;;;;5055541;28;45408;-74
2022/02/17 10:07:29;;;;;;;;;8.50;7.75;;;;;;;;5053450;28;46150;-73
2022/02/17 10:09:58;;;;;;;;;10.25;9.00;;;;;;;;5055503;28;45450;-73
2022/02/17 10:12:23;;;;;;;;;12.25;9.25;;;;;;;;5055025;28;45337;-74
2022/02/17 10:14:56;;;;;;;;;12.75;7.00;;;;;;;;5055116;28;45482;-74
2022/02/17 10:17:22;;;;;;;;;17.00;10.00;;;;;;;;5055117;28;46264;-74
2022/02/17 10:19:49;;;;;;;;;13.50;8.50;;;;;;;;5054592;28;45330;-73
2022/02/17 10:22:14;;;;;;;;;14.25;10.00;;;;;;;;5054638;28;45332;-73
2022/02/17 10:24:46;;;;;;;;;17.60;14.00;;;;;;;;5055500;28;45544;-74
2022/02/17 10:27:13;;;;;;;;;16.25;10.25;;;;;;;;5054735;28;46175;-74
2022/02/17 10:29:40;;;;;;;;;10.50;10.25;;;;;;;;5055001;28;45409;-74
2022/02/17 10:32:06;;;;;;;;;16.75;8.00;;;;;;;;5055867;28;45418;-74
2022/02/17 10:34:32;;;;;;;;;12.50;9.00;;;;;;;;5050447;28;45422;-74
2022/02/17 10:36:57;;;;;;;;;15.25;5.25;;;;;;;;5054844;28;45990;-73
2022/02/17 10:39:22;;;;;;;;;10.00;7.75;;;;;;;;5055047;28;45394;-73
2022/02/17 10:41:51;;;;;;;;;14.00;9.50;;;;;;;;5055810;28;45298;-74
2022/02/17 10:44:19;;;;;;;;;6.25;6.25;;;;;;;;5054704;28;45574;-74
2022/02/17 10:46:44;;;;;;;;;15.25;11.00;;;;;;;;5053961;28;45628;-74
2022/02/17 10:49:11;;;;;;;;;9.75;6.00;;;;;;;;5054359;28;45465;-74
2022/02/17 10:51:36;;;;;;;;;13.75;8.25;;;;;;;;5054725;28;45524;-74
2022/02/17 10:54:01;;;;;;;;;10.25;7.00;;;;;;;;5054661;28;45491;-74
2022/02/17 10:56:30;;;;;;;;;7.00;5.75;;;;;;;;5054860;28;46184;-74
2022/02/17 10:58:58;;;;;;;;;8.75;5.25;;;;;;;;5037196;28;46267;-74
2022/02/17 11:01:24;;;;;;;;;9.00;6.00;;;;;;;;5053955;28;45223;-73
2022/02/17 11:03:51;;;;;;;;;4.00;3.00;;;;;;;;5054202;27;45676;-74
2022/02/17 11:06:17;;;;;;;;;12.00;9.00;;;;;;;;5054206;28;46240;-73
2022/02/17 11:08:43;;;;;;;;;10.75;5.25;;;;;;;;5054117;28;45375;-73
2022/02/17 11:11:09;;;;;;;;;13.75;8.50;;;;;;;;5053806;28;45339;-73
2022/02/17 11:13:34;;;;;;;;;9.75;4.50;;;;;;;;5053512;28;45391;-73
2022/02/17 11:16:02;;;;;;;;;9.25;6.75;;;;;;;;5054235;28;46277;-73
2022/02/17 11:18:28;;;;;;;;;13.75;8.25;;;;;;;;5054294;28;45554;-73
2022/02/17 11:20:53;;;;;;;;;6.00;5.50;;;;;;;;5054116;28;45475;-74
2022/02/17 11:23:20;;;;;;;;;8.00;5.25;;;;;;;;5053712;28;45414;-74
2022/02/17 11:25:47;;;;;;;;;6.75;5.00;;;;;;;;5053296;27;45538;-74
2022/02/17 11:28:14;;;;;;;;;11.75;7.00;;;;;;;;5053533;28;45441;-75
2022/02/17 11:30:42;;;;;;;;;2.00;2.00;;;;;;;;5054382;28;45477;-73
2022/02/17 11:33:26;;;;;;;;;10.00;5.00;;;;;;;;5056770;28;45431;-73
2022/02/17 11:35:52;;;;;;;;;5.75;4.75;;;;;;;;5053913;28;45428;-74
2022/02/17 11:38:31;;;;;;;;;7.00;2.75;;;;;;;;5055208;28;45308;-74
2022/02/17 11:41:02;;;;;;;;;9.00;6.75;;;;;;;;5053597;28;45390;-74
2022/02/17 11:43:30;;;;;;;;;12.25;7.75;;;;;;;;5052909;28;45477;-73
2022/02/17 11:45:56;;;;;;;;;8.00;6.75;;;;;;;;5053695;28;45349;-73
2022/02/17 11:48:36;;;;;;;;;14.00;7.75;;;;;;;;5053096;28;45407;-73
2022/02/17 11:51:09;;;;;;;;;5.25;3.25;;;;;;;;5053193;28;45579;-74
2022/02/17 11:53:36;;;;;;;;;8.25;6.25;;;;;;;;5052505;28;45728;-74
2022/02/17 11:56:14;;;;;;;;;7.00;6.75;;;;;;;;5055091;28;46006;-73
2022/02/17 11:58:45;;;;;;;;;7.25;4.00;;;;;;;;5052195;28;45389;-74
2022/02/17 12:01:25;;;;;;;;;3.25;3.25;;;;;;;;5057405;28;45456;-73
2022/02/17 12:03:57;;;;;;;;;5.25;5.25;;;;;;;;5056658;28;45480;-72
2022/02/17 12:06:32;;;;;;;;;4.50;1.50;;;;;;;;5057708;28;46262;-74
2022/02/17 12:08:57;;;;;;;;;7.50;3.25;;;;;;;;5057182;28;45470;-74
2022/02/17 12:11:31;;;;;;;;;7.25;4.25;;;;;;;;5057435;28;45389;-73
2022/02/17 12:13:59;;;;;;;;;6.75;5.00;;;;;;;;5057751;27;45528;-75
2022/02/17 12:16:40;;;;;;;;;9.75;6.00;;;;;;;;5056420;28;46974;-73
2022/02/17 12:19:09;;;;;;;;;7.25;4.75;;;;;;;;5056443;28;45342;-74
2022/02/17 12:21:35;;;;;;;;;5.75;5.00;;;;;;;;5056778;28;45642;-73
2022/02/17 12:24:01;;;;;;;;;5.50;5.00;;;;;;;;5057143;28;45631;-73
2022/02/17 12:26:39;;;;;;;;;8.00;5.25;;;;;;;;5057438;28;47124;-72
2022/02/17 12:29:18;;;;;;;;;7.50;4.25;;;;;;;;5056884;28;45503;-73
2022/02/17 12:31:43;;;;;;;;;4.50;2.50;;;;;;;;5051988;28;45348;-74
2022/02/17 12:34:08;;;;;;;;;5.00;3.25;;;;;;;;5057024;27;45485;-74
2022/02/17 12:36:35;;;;;;;;;9.25;5.00;;;;;;;;5056735;28;46329;-74
2022/02/17 12:39:04;;;;;;;;;3.25;2.00;;;;;;;;5056441;27;45446;-74
2022/02/17 12:41:29;;;;;;;;;6.50;2.00;;;;;;;;5059214;28;45494;-74
2022/02/17 12:43:54;;;;;;;;;8.50;3.25;;;;;;;;5057016;28;45282;-74
2022/02/17 12:46:20;;;;;;;;;4.75;2.75;;;;;;;;5056235;28;45390;-74
2022/02/17 12:48:45;;;;;;;;;2.75;1.00;;;;;;;;5056667;28;45316;-73
2022/02/17 12:51:22;;;;;;;;;2.25;1.50;;;;;;;;5057513;28;45302;-74
2022/02/17 12:53:48;;;;;;;;;4.50;2.75;;;;;;;;5056560;28;45510;-74
2022/02/17 12:56:23;;;;;;;;;5.50;4.00;;;;;;;;5056224;28;46257;-74
2022/02/17 12:58:49;;;;;;;;;3.50;3.50;;;;;;;;5056014;28;45403;-73
2022/02/17 13:01:21;;;;;;;;;4.50;3.00;;;;;;;;5055182;28;45727;-73
2022/02/17 13:03:48;;;;;;;;;3.00;2.00;;;;;;;;5055965;28;45496;-73
2022/02/17 13:06:19;;;;;;;;;6.00;4.75;;;;;;;;5055336;28;46211;-73
2022/02/17 13:08:44;;;;;;;;;4.50;3.50;;;;;;;;5055916;28;45331;-74
2022/02/17 13:11:13;;;;;;;;;1.67;1.67;;;;;;;;5038218;28;45514;-75
2022/02/17 13:13:39;;;;;;;;;8.75;3.50;;;;;;;;5055625;28;45515;-74
2022/02/17 13:16:05;;;;;;;;;6.00;6.00;;;;;;;;5055705;28;47179;-74
2022/02/17 13:18:30;;;;;;;;;6.25;5.00;;;;;;;;5056177;28;45426;-73
2022/02/17 13:21:08;;;;;;;;;8.33;3.67;;;;;;;;5056131;28;45387;-73
2022/02/17 13:23:33;;;;;;;;;7.50;3.75;;;;;;;;5055975;28;45444;-74
2022/02/17 13:25:58;;;;;;;;;4.75;4.75;;;;;;;;5056545;28;46599;-74
2022/02/17 13:28:24;;;;;;;;;7.75;4.00;;;;;;;;5055499;28;45343;-74
2022/02/17 13:30:49;;;;;;;;;8.25;4.25;;;;;;;;5056223;28;45213;-74
2022/02/17 13:33:17;;;;;;;;;7.75;5.75;;;;;;;;5055382;28;45467;-74
2022/02/17 13:35:48;;;;;;;;;6.50;6.50;;;;;;;;5056715;28;47281;-74
2022/02/17 13:38:13;;;;;;;;;6.00;6.00;;;;;;;;5055931;28;45356;-75
2022/02/17 13:40:58;;;;;;;;;5.00;4.00;;;;;;;;5054825;28;45556;-73
2022/02/17 13:43:24;;;;;;;;;8.25;5.75;;;;;;;;5053896;28;45481;-74
2022/02/17 13:45:58;;;;;;;;;9.50;6.25;;;;;;;;5055576;28;47237;-74
2022/02/17 13:48:26;;;;;;;;;7.75;3.25;;;;;;;;5055971;28;45283;-73
2022/02/17 13:50:58;;;;;;;;;4.25;2.00;;;;;;;;5055572;27;45391;-74
2022/02/17 13:53:30;;;;;;;;;5.00;3.25;;;;;;;;5055550;28;45588;-74
2022/02/17 13:56:01;;;;;;;;;2.00;2.00;;;;;;;;5055083;28;46180;-74
2022/02/17 13:58:27;;;;;;;;;4.50;2.25;;;;;;;;5054519;28;45400;-74
2022/02/17 14:00:53;;;;;;;;;2.00;2.00;;;;;;;;5056186;28;45944;-74
2022/02/17 14:03:25;;;;;;;;;7.67;2.67;;;;;;;;5055260;27;45777;-75
2022/02/17 14:05:52;;;;;;;;;3.00;3.00;;;;;;;;5055095;28;45808;-74
2022/02/17 14:08:18;;;;;;;;;2.33;2.00;;;;;;;;5056168;27;45375;-72
2022/02/17 14:10:44;;;;;;;;;1.67;1.67;;;;;;;;5055005;28;45437;-72
2022/02/17 14:13:09;;;;;;;;;7.50;2.75;;;;;;;;5055294;28;45419;-73
2022/02/17 14:15:34;;;;;;;;;7.00;4.50;;;;;;;;5055575;28;46390;-74
2022/02/17 14:17:59;;;;;;;;;5.67;4.67;;;;;;;;5054917;28;45482;-73
2022/02/17 14:20:24;;;;;;;;;3.00;3.00;;;;;;;;5055704;28;45236;-74
2022/02/17 14:22:50;;;;;;;;;4.00;4.00;;;;;;;;5055816;28;45309;-74
2022/02/17 14:25:16;;;;;;;;;4.00;1.67;;;;;;;;5054238;28;46447;-74
2022/02/17 14:27:41;;;;;;;;;6.33;4.00;;;;;;;;5055131;28;45430;-74
2022/02/17 14:30:07;;;;;;;;;8.00;4.00;;;;;;;;5057008;28;45462;-73
2022/02/17 14:32:32;;;;;;;;;4.75;3.00;;;;;;;;5055195;27;45412;-74
2022/02/17 14:35:09;;;;;;;;;5.33;3.00;;;;;;;;5055708;28;45385;-78
2022/02/17 14:37:34;;;;;;;;;5.00;4.00;;;;;;;;5050698;28;45578;-77